Time,TemperatureF,DewpointF,PressureIn,WindDirection,WindDirectionDegrees,WindSpeedMPH,WindSpeedGustMPH,Humidity,HourlyPrecipIn,Conditions,Clouds,dailyrainin,SolarRadiationWatts/m^2,SoftwareType,DateUTC
2013-04-17 00:12:00,29.0,28.0,-100.00,WNW,290,5.0,12.0,95,0.00,,,0.00,0.000000,,2013-04-17 07:12:00,
2013-04-17 00:22:00,29.0,28.0,-100.00,WNW,290,5.0,12.0,95,0.00,,,0.00,0.000000,,2013-04-17 07:22:00,
2013-04-17 00:32:00,29.0,28.0,-100.00,WNW,290,5.0,12.0,95,0.00,,,0.00,0.000000,,2013-04-17 07:32:00,
2013-04-17 00:42:00,29.0,28.0,-100.00,WNW,290,5.0,12.0,95,0.00,,,0.00,0.000000,,2013-04-17 07:42:00,
2013-04-17 00:52:00,29.0,27.0,-100.00,WNW,288,7.0,16.0,94,0.00,,,0.00,0.000000,,2013-04-17 07:52:00,
2013-04-17 01:22:00,29.0,27.0,-100.00,WNW,288,7.0,16.0,94,0.00,,,0.00,0.000000,,2013-04-17 08:22:00,
2013-04-17 01:32:00,29.0,27.0,-100.00,WNW,288,7.0,16.0,94,0.00,,,0.00,0.000000,,2013-04-17 08:32:00,
2013-04-17 01:42:00,29.0,27.0,-100.00,WNW,288,7.0,16.0,94,0.00,,,0.00,0.000000,,2013-04-17 08:42:00,
2013-04-17 01:52:00,29.0,27.0,-100.00,West,278,7.0,17.0,92,0.00,,,0.00,0.000000,,2013-04-17 08:52:00,
2013-04-17 02:12:00,29.0,27.0,-100.00,West,278,7.0,17.0,92,0.00,,,0.00,0.000000,,2013-04-17 09:12:00,
2013-04-17 02:22:00,29.0,27.0,-100.00,West,278,7.0,17.0,92,0.00,,,0.00,0.000000,,2013-04-17 09:22:00,
2013-04-17 02:33:00,29.0,27.0,-100.00,West,278,7.0,17.0,92,0.00,,,0.00,0.000000,,2013-04-17 09:33:00,
2013-04-17 02:42:00,29.0,27.0,-100.00,West,278,7.0,17.0,92,0.00,,,0.00,0.000000,,2013-04-17 09:42:00,
2013-04-17 02:52:00,29.0,23.0,-100.00,WNW,286,6.0,17.0,78,0.00,,,0.00,0.000000,,2013-04-17 09:52:00,
2013-04-17 03:12:00,29.0,23.0,-100.00,WNW,286,6.0,17.0,78,0.00,,,0.00,0.000000,,2013-04-17 10:12:00,
2013-04-17 03:23:00,29.0,23.0,-100.00,WNW,286,6.0,17.0,78,0.00,,,0.00,0.000000,,2013-04-17 10:23:00,
2013-04-17 03:32:00,29.0,23.0,-100.00,WNW,286,6.0,17.0,78,0.00,,,0.00,0.000000,,2013-04-17 10:32:00,
2013-04-17 03:42:00,29.0,23.0,-100.00,WNW,286,6.0,17.0,78,0.00,,,0.00,0.000000,,2013-04-17 10:42:00,
2013-04-17 04:12:00,29.0,24.0,-100.00,NW,312,4.0,13.0,80,0.00,,,0.00,0.000000,,2013-04-17 11:12:00,
2013-04-17 04:22:00,29.0,24.0,-100.00,NW,312,4.0,13.0,80,0.00,,,0.00,0.000000,,2013-04-17 11:22:00,
2013-04-17 04:32:00,29.0,24.0,-100.00,NW,312,4.0,13.0,80,0.00,,,0.00,0.000000,,2013-04-17 11:32:00,
2013-04-17 04:42:00,29.0,24.0,-100.00,NW,312,4.0,13.0,80,0.00,,,0.00,0.000000,,2013-04-17 11:42:00,
2013-04-17 04:51:00,29.0,24.0,-100.00,NW,312,4.0,13.0,80,0.00,,,0.00,0.000000,,2013-04-17 11:51:00,
2013-04-17 05:12:00,29.0,23.0,-100.00,West,267,4.0,13.0,78,0.00,,,0.00,0.000000,,2013-04-17 12:12:00,
2013-04-17 05:22:00,29.0,23.0,-100.00,West,267,4.0,13.0,78,0.00,,,0.00,0.000000,,2013-04-17 12:22:00,
2013-04-17 05:32:00,29.0,23.0,-100.00,West,267,4.0,13.0,78,0.00,,,0.00,0.000000,,2013-04-17 12:32:00,
2013-04-17 05:42:00,29.0,23.0,-100.00,West,267,4.0,13.0,78,0.00,,,0.00,0.000000,,2013-04-17 12:42:00,
2013-04-17 05:51:00,29.0,23.0,-100.00,West,267,4.0,13.0,78,0.00,,,0.00,0.000000,,2013-04-17 12:51:00,
2013-04-17 05:52:00,29.0,22.0,-100.00,North,358,3.0,14.0,74,0.00,,,0.00,0.000000,,2013-04-17 12:52:00,
2013-04-17 06:22:00,29.0,22.0,-100.00,North,358,3.0,14.0,74,0.00,,,0.00,0.000000,,2013-04-17 13:22:00,
2013-04-17 06:32:00,29.0,22.0,-100.00,North,358,3.0,14.0,74,0.00,,,0.00,0.000000,,2013-04-17 13:32:00,
2013-04-17 06:42:00,29.0,22.0,-100.00,North,358,3.0,14.0,74,0.00,,,0.00,0.000000,,2013-04-17 13:42:00,
2013-04-17 06:52:00,31.0,18.0,-100.00,NW,304,5.0,14.0,59,0.00,,,0.00,7.000000,,2013-04-17 13:52:00,
2013-04-17 07:12:00,31.0,18.0,-100.00,NW,304,5.0,14.0,59,0.00,,,0.00,7.000000,,2013-04-17 14:12:00,
2013-04-17 07:22:00,31.0,18.0,-100.00,NW,304,5.0,14.0,59,0.00,,,0.00,7.000000,,2013-04-17 14:22:00,
2013-04-17 07:32:00,31.0,18.0,-100.00,NW,304,5.0,14.0,59,0.00,,,0.00,7.000000,,2013-04-17 14:32:00,
2013-04-17 07:42:00,31.0,18.0,-100.00,NW,304,5.0,14.0,59,0.00,,,0.00,7.000000,,2013-04-17 14:42:00,
2013-04-17 07:52:00,35.0,19.0,-100.00,NW,308,5.0,15.0,51,0.00,,,0.00,60.000000,,2013-04-17 14:52:00,
2013-04-17 08:22:00,35.0,19.0,-100.00,NW,308,5.0,15.0,51,0.00,,,0.00,60.000000,,2013-04-17 15:22:00,
2013-04-17 08:33:00,35.0,19.0,-100.00,NW,308,5.0,15.0,51,0.00,,,0.00,60.000000,,2013-04-17 15:33:00,
2013-04-17 08:42:00,35.0,19.0,-100.00,NW,308,5.0,15.0,51,0.00,,,0.00,60.000000,,2013-04-17 15:42:00,
2013-04-17 08:52:00,42.0,16.0,-100.00,NE,41,5.0,14.0,34,0.00,,,0.00,319.000000,,2013-04-17 15:52:00,
2013-04-17 09:22:00,42.0,16.0,-100.00,NE,41,5.0,14.0,34,0.00,,,0.00,319.000000,,2013-04-17 16:22:00,
2013-04-17 09:32:00,42.0,16.0,-100.00,NE,41,5.0,14.0,34,0.00,,,0.00,319.000000,,2013-04-17 16:32:00,
2013-04-17 09:42:00,42.0,16.0,-100.00,NE,41,5.0,14.0,34,0.00,,,0.00,319.000000,,2013-04-17 16:42:00,
2013-04-17 10:22:00,45.0,17.0,-100.00,NE,44,5.0,12.0,32,0.00,,,0.00,644.000000,,2013-04-17 17:22:00,
2013-04-17 10:33:00,45.0,17.0,-100.00,NE,44,5.0,12.0,32,0.00,,,0.00,644.000000,,2013-04-17 17:33:00,
2013-04-17 10:42:00,45.0,17.0,-100.00,NE,44,5.0,12.0,32,0.00,,,0.00,644.000000,,2013-04-17 17:42:00,
2013-04-17 10:51:00,45.0,17.0,-100.00,NE,44,5.0,12.0,32,0.00,,,0.00,644.000000,,2013-04-17 17:51:00,
2013-04-17 11:12:00,46.0,14.0,-100.00,North,10,5.0,13.0,27,0.00,,,0.00,836.000000,,2013-04-17 18:12:00,
2013-04-17 11:22:00,46.0,14.0,-100.00,North,10,5.0,13.0,27,0.00,,,0.00,836.000000,,2013-04-17 18:22:00,
2013-04-17 11:32:00,46.0,14.0,-100.00,North,10,5.0,13.0,27,0.00,,,0.00,836.000000,,2013-04-17 18:32:00,
2013-04-17 11:42:00,46.0,14.0,-100.00,North,10,5.0,13.0,27,0.00,,,0.00,836.000000,,2013-04-17 18:42:00,
2013-04-17 11:51:00,46.0,14.0,-100.00,North,10,5.0,13.0,27,0.00,,,0.00,836.000000,,2013-04-17 18:51:00,
2013-04-17 11:52:00,48.0,14.0,-100.00,ENE,59,6.0,15.0,25,0.00,,,0.00,967.000000,,2013-04-17 18:52:00,
2013-04-17 12:12:00,48.0,14.0,-100.00,ENE,59,6.0,15.0,25,0.00,,,0.00,967.000000,,2013-04-17 19:12:00,
2013-04-17 12:22:00,48.0,14.0,-100.00,ENE,59,6.0,15.0,25,0.00,,,0.00,967.000000,,2013-04-17 19:22:00,
2013-04-17 12:32:00,48.0,14.0,-100.00,ENE,59,6.0,15.0,25,0.00,,,0.00,967.000000,,2013-04-17 19:32:00,
2013-04-17 12:42:00,48.0,14.0,-100.00,ENE,59,6.0,15.0,25,0.00,,,0.00,967.000000,,2013-04-17 19:42:00,
2013-04-17 12:52:00,49.0,7.0,-100.00,NE,37,5.0,11.0,18,0.00,,,0.00,1036.000000,,2013-04-17 19:52:00,
2013-04-17 13:22:00,49.0,7.0,-100.00,NE,37,5.0,11.0,18,0.00,,,0.00,1036.000000,,2013-04-17 20:22:00,
2013-04-17 13:32:00,49.0,7.0,-100.00,NE,37,5.0,11.0,18,0.00,,,0.00,1036.000000,,2013-04-17 20:32:00,
2013-04-17 13:42:00,49.0,7.0,-100.00,NE,37,5.0,11.0,18,0.00,,,0.00,1036.000000,,2013-04-17 20:42:00,
2013-04-17 13:52:00,50.0,4.0,-100.00,East,84,5.0,10.0,15,0.00,,,0.00,1038.000000,,2013-04-17 20:52:00,
2013-04-17 14:12:00,50.0,4.0,-100.00,East,84,5.0,10.0,15,0.00,,,0.00,1038.000000,,2013-04-17 21:12:00,
2013-04-17 14:22:00,50.0,4.0,-100.00,East,84,5.0,10.0,15,0.00,,,0.00,1038.000000,,2013-04-17 21:22:00,
2013-04-17 14:32:00,50.0,4.0,-100.00,East,84,5.0,10.0,15,0.00,,,0.00,1038.000000,,2013-04-17 21:32:00,
2013-04-17 14:42:00,50.0,4.0,-100.00,East,84,5.0,10.0,15,0.00,,,0.00,1038.000000,,2013-04-17 21:42:00,
2013-04-17 14:52:00,51.0,6.0,-100.00,ENE,57,4.0,10.0,16,0.00,,,0.00,972.000000,,2013-04-17 21:52:00,
2013-04-17 15:12:00,51.0,6.0,-100.00,ENE,57,4.0,10.0,16,0.00,,,0.00,972.000000,,2013-04-17 22:12:00,
2013-04-17 15:22:00,51.0,6.0,-100.00,ENE,57,4.0,10.0,16,0.00,,,0.00,972.000000,,2013-04-17 22:22:00,
2013-04-17 15:33:00,51.0,6.0,-100.00,ENE,57,4.0,10.0,16,0.00,,,0.00,972.000000,,2013-04-17 22:33:00,
2013-04-17 15:42:00,51.0,6.0,-100.00,ENE,57,4.0,10.0,16,0.00,,,0.00,972.000000,,2013-04-17 22:42:00,
2013-04-17 15:52:00,51.0,5.0,-100.00,NE,45,4.0,11.0,15,0.00,,,0.00,843.000000,,2013-04-17 22:52:00,
2013-04-17 16:22:00,51.0,5.0,-100.00,NE,45,4.0,11.0,15,0.00,,,0.00,843.000000,,2013-04-17 23:22:00,
2013-04-17 16:32:00,51.0,5.0,-100.00,NE,45,4.0,11.0,15,0.00,,,0.00,843.000000,,2013-04-17 23:32:00,
2013-04-17 16:42:00,51.0,5.0,-100.00,NE,45,4.0,11.0,15,0.00,,,0.00,843.000000,,2013-04-17 23:42:00,
2013-04-17 16:52:00,50.0,6.0,-100.00,East,85,4.0,11.0,16,0.00,,,0.00,657.000000,,2013-04-17 23:52:00,
2013-04-17 17:22:00,50.0,6.0,-100.00,East,85,4.0,11.0,16,0.00,,,0.00,657.000000,,2013-04-18 00:22:00,
2013-04-17 17:32:00,50.0,6.0,-100.00,East,85,4.0,11.0,16,0.00,,,0.00,657.000000,,2013-04-18 00:32:00,
2013-04-17 17:42:00,50.0,6.0,-100.00,East,85,4.0,11.0,16,0.00,,,0.00,657.000000,,2013-04-18 00:42:00,
2013-04-17 17:52:00,47.0,4.0,-100.00,ENE,76,3.0,9.0,17,0.00,,,0.00,263.000000,,2013-04-18 00:52:00,
2013-04-17 18:12:00,47.0,4.0,-100.00,ENE,76,3.0,9.0,17,0.00,,,0.00,263.000000,,2013-04-18 01:12:00,
2013-04-17 18:22:00,47.0,4.0,-100.00,ENE,76,3.0,9.0,17,0.00,,,0.00,263.000000,,2013-04-18 01:22:00,
2013-04-17 18:32:00,47.0,4.0,-100.00,ENE,76,3.0,9.0,17,0.00,,,0.00,263.000000,,2013-04-18 01:32:00,
2013-04-17 18:42:00,47.0,4.0,-100.00,ENE,76,3.0,9.0,17,0.00,,,0.00,263.000000,,2013-04-18 01:42:00,
2013-04-17 19:22:00,43.0,4.0,-100.00,ENE,66,2.0,7.0,19,0.00,,,0.00,39.000000,,2013-04-18 02:22:00,
2013-04-17 19:32:00,43.0,4.0,-100.00,ENE,66,2.0,7.0,19,0.00,,,0.00,39.000000,,2013-04-18 02:32:00,
2013-04-17 19:42:00,43.0,4.0,-100.00,ENE,66,2.0,7.0,19,0.00,,,0.00,39.000000,,2013-04-18 02:42:00,
2013-04-17 19:51:00,43.0,4.0,-100.00,ENE,66,2.0,7.0,19,0.00,,,0.00,39.000000,,2013-04-18 02:51:00,
2013-04-17 19:52:00,36.0,5.0,-100.00,NE,52,0.0,5.0,27,0.00,,,0.00,5.000000,,2013-04-18 02:52:00,
2013-04-17 20:22:00,36.0,5.0,-100.00,NE,52,0.0,5.0,27,0.00,,,0.00,5.000000,,2013-04-18 03:22:00,
2013-04-17 20:33:00,36.0,5.0,-100.00,NE,52,0.0,5.0,27,0.00,,,0.00,5.000000,,2013-04-18 03:33:00,
2013-04-17 20:43:00,36.0,5.0,-100.00,NE,52,0.0,5.0,27,0.00,,,0.00,5.000000,,2013-04-18 03:43:00,
2013-04-17 21:23:00,32.0,5.0,-100.00,ESE,104,1.0,4.0,31,0.00,,,0.00,0.000000,,2013-04-18 04:23:00,
2013-04-17 21:33:00,32.0,5.0,-100.00,ESE,104,1.0,4.0,31,0.00,,,0.00,0.000000,,2013-04-18 04:33:00,
2013-04-17 22:12:00,30.0,3.0,-100.00,East,80,0.0,3.0,31,-99.99,,,0.00,0.000000,,2013-04-18 05:12:00,
2013-04-17 23:52:00,41.0,3.0,-100.00,ENE,58,5.0,10.0,20,-99.99,,,0.00,0.000000,,2013-04-18 06:52:00,